sensor_id;sensor_type;location;lat;lon;timestamp;P1;durP1;ratioP1;P2;durP2;ratioP2
49890;SDS011;35780;55.568;37.492;2023-02-15T00:01:08;1.45;;;1.00;;
49890;SDS011;35780;55.568;37.492;2023-02-15T00:03:35;5.45;;;1.40;;
49890;SDS011;35780;55.568;37.492;2023-02-15T00:06:01;5.00;;;1.30;;
49890;SDS011;35780;55.568;37.492;2023-02-15T00:08:27;5.35;;;1.40;;
49890;SDS011;35780;55.568;37.492;2023-02-15T00:10:53;4.68;;;1.38;;
49890;SDS011;35780;55.568;37.492;2023-02-15T00:13:18;7.80;;;2.35;;
49890;SDS011;35780;55.568;37.492;2023-02-15T00:15:44;4.13;;;1.45;;
49890;SDS011;35780;55.568;37.492;2023-02-15T00:18:09;9.40;;;1.80;;
49890;SDS011;35780;55.568;37.492;2023-02-15T00:20:35;5.55;;;2.33;;
49890;SDS011;35780;55.568;37.492;2023-02-15T00:23:00;3.50;;;1.20;;
49890;SDS011;35780;55.568;37.492;2023-02-15T00:25:26;4.15;;;1.83;;
49890;SDS011;35780;55.568;37.492;2023-02-15T00:27:51;2.67;;;1.40;;
49890;SDS011;35780;55.568;37.492;2023-02-15T00:30:17;4.25;;;1.52;;
49890;SDS011;35780;55.568;37.492;2023-02-15T00:32:42;3.97;;;1.42;;
49890;SDS011;35780;55.568;37.492;2023-02-15T00:35:08;2.53;;;1.20;;
49890;SDS011;35780;55.568;37.492;2023-02-15T00:37:34;8.18;;;1.98;;
49890;SDS011;35780;55.568;37.492;2023-02-15T00:40:00;5.82;;;1.65;;
49890;SDS011;35780;55.568;37.492;2023-02-15T00:42:26;6.15;;;2.05;;
49890;SDS011;35780;55.568;37.492;2023-02-15T00:44:51;8.07;;;2.60;;
49890;SDS011;35780;55.568;37.492;2023-02-15T00:47:17;3.22;;;1.45;;
49890;SDS011;35780;55.568;37.492;2023-02-15T00:49:42;3.88;;;1.35;;
49890;SDS011;35780;55.568;37.492;2023-02-15T00:52:08;5.25;;;1.52;;
49890;SDS011;35780;55.568;37.492;2023-02-15T00:54:33;3.97;;;1.85;;
49890;SDS011;35780;55.568;37.492;2023-02-15T00:56:59;9.15;;;1.75;;
49890;SDS011;35780;55.568;37.492;2023-02-15T00:59:25;7.05;;;1.65;;
49890;SDS011;35780;55.568;37.492;2023-02-15T01:01:51;8.77;;;3.05;;
49890;SDS011;35780;55.568;37.492;2023-02-15T01:04:16;4.90;;;1.42;;
49890;SDS011;35780;55.568;37.492;2023-02-15T01:06:42;5.63;;;1.60;;
49890;SDS011;35780;55.568;37.492;2023-02-15T01:09:07;6.63;;;1.80;;
49890;SDS011;35780;55.568;37.492;2023-02-15T01:11:33;7.50;;;1.92;;
49890;SDS011;35780;55.568;37.492;2023-02-15T01:13:59;4.82;;;1.50;;
49890;SDS011;35780;55.568;37.492;2023-02-15T01:16:25;6.90;;;1.98;;
49890;SDS011;35780;55.568;37.492;2023-02-15T01:18:52;10.35;;;1.58;;
49890;SDS011;35780;55.568;37.492;2023-02-15T01:21:20;6.22;;;1.80;;
49890;SDS011;35780;55.568;37.492;2023-02-15T01:23:47;5.25;;;1.80;;
49890;SDS011;35780;55.568;37.492;2023-02-15T01:26:13;8.77;;;2.30;;
49890;SDS011;35780;55.568;37.492;2023-02-15T01:28:39;7.90;;;2.03;;
49890;SDS011;35780;55.568;37.492;2023-02-15T01:31:05;5.07;;;1.80;;
49890;SDS011;35780;55.568;37.492;2023-02-15T01:33:32;2.83;;;1.23;;
49890;SDS011;35780;55.568;37.492;2023-02-15T01:35:58;5.90;;;1.92;;
49890;SDS011;35780;55.568;37.492;2023-02-15T01:38:23;7.75;;;2.38;;
49890;SDS011;35780;55.568;37.492;2023-02-15T01:40:52;5.95;;;1.85;;
49890;SDS011;35780;55.568;37.492;2023-02-15T01:43:18;4.85;;;1.40;;
49890;SDS011;35780;55.568;37.492;2023-02-15T01:45:45;5.60;;;1.80;;
49890;SDS011;35780;55.568;37.492;2023-02-15T01:48:18;5.28;;;1.63;;
49890;SDS011;35780;55.568;37.492;2023-02-15T01:50:54;10.05;;;1.50;;
49890;SDS011;35780;55.568;37.492;2023-02-15T01:55:48;9.45;;;3.72;;
49890;SDS011;35780;55.568;37.492;2023-02-15T01:58:17;8.57;;;1.60;;
49890;SDS011;35780;55.568;37.492;2023-02-15T02:00:43;6.07;;;1.60;;
49890;SDS011;35780;55.568;37.492;2023-02-15T02:03:09;5.10;;;1.45;;
49890;SDS011;35780;55.568;37.492;2023-02-15T02:05:35;9.15;;;1.90;;
49890;SDS011;35780;55.568;37.492;2023-02-15T02:08:01;6.05;;;2.03;;
49890;SDS011;35780;55.568;37.492;2023-02-15T02:10:27;5.50;;;1.50;;
49890;SDS011;35780;55.568;37.492;2023-02-15T02:12:59;7.95;;;1.70;;
49890;SDS011;35780;55.568;37.492;2023-02-15T02:15:46;7.68;;;2.20;;
49890;SDS011;35780;55.568;37.492;2023-02-15T02:18:18;5.95;;;1.70;;
49890;SDS011;35780;55.568;37.492;2023-02-15T02:23:41;9.27;;;2.72;;
49890;SDS011;35780;55.568;37.492;2023-02-15T02:34:33;8.48;;;1.80;;
49890;SDS011;35780;55.568;37.492;2023-02-15T02:42:54;8.77;;;1.90;;
49890;SDS011;35780;55.568;37.492;2023-02-15T02:45:28;9.45;;;1.80;;
49890;SDS011;35780;55.568;37.492;2023-02-15T02:48:05;5.55;;;1.42;;
49890;SDS011;35780;55.568;37.492;2023-02-15T02:50:33;4.70;;;1.65;;
49890;SDS011;35780;55.568;37.492;2023-02-15T02:52:59;5.35;;;1.50;;
49890;SDS011;35780;55.568;37.492;2023-02-15T02:58:00;5.03;;;1.42;;
49890;SDS011;35780;55.568;37.492;2023-02-15T03:00:29;10.80;;;2.10;;
49890;SDS011;35780;55.568;37.492;2023-02-15T03:03:06;7.03;;;1.67;;
49890;SDS011;35780;55.568;37.492;2023-02-15T03:05:37;4.22;;;1.35;;
49890;SDS011;35780;55.568;37.492;2023-02-15T03:08:05;5.45;;;1.85;;
49890;SDS011;35780;55.568;37.492;2023-02-15T03:10:31;7.35;;;2.28;;
49890;SDS011;35780;55.568;37.492;2023-02-15T03:12:58;5.85;;;1.80;;
49890;SDS011;35780;55.568;37.492;2023-02-15T03:15:25;7.80;;;1.90;;
49890;SDS011;35780;55.568;37.492;2023-02-15T03:18:14;6.50;;;1.65;;
49890;SDS011;35780;55.568;37.492;2023-02-15T03:20:43;4.32;;;1.60;;
49890;SDS011;35780;55.568;37.492;2023-02-15T03:23:10;9.98;;;1.92;;
49890;SDS011;35780;55.568;37.492;2023-02-15T03:25:52;6.28;;;1.52;;
49890;SDS011;35780;55.568;37.492;2023-02-15T03:28:26;7.40;;;2.17;;
49890;SDS011;35780;55.568;37.492;2023-02-15T03:30:55;8.27;;;1.90;;
49890;SDS011;35780;55.568;37.492;2023-02-15T03:33:22;5.30;;;1.70;;
49890;SDS011;35780;55.568;37.492;2023-02-15T03:35:50;8.45;;;2.30;;
49890;SDS011;35780;55.568;37.492;2023-02-15T03:38:20;8.73;;;2.10;;
49890;SDS011;35780;55.568;37.492;2023-02-15T03:40:51;7.53;;;2.05;;
49890;SDS011;35780;55.568;37.492;2023-02-15T03:43:56;10.75;;;2.30;;
49890;SDS011;35780;55.568;37.492;2023-02-15T03:48:54;4.85;;;1.55;;
49890;SDS011;35780;55.568;37.492;2023-02-15T03:51:23;9.10;;;1.95;;
49890;SDS011;35780;55.568;37.492;2023-02-15T03:53:58;5.90;;;2.17;;
49890;SDS011;35780;55.568;37.492;2023-02-15T03:56:26;9.07;;;1.95;;
49890;SDS011;35780;55.568;37.492;2023-02-15T03:58:52;12.55;;;1.88;;
49890;SDS011;35780;55.568;37.492;2023-02-15T04:01:37;18.70;;;2.47;;
49890;SDS011;35780;55.568;37.492;2023-02-15T04:04:39;9.13;;;2.17;;
49890;SDS011;35780;55.568;37.492;2023-02-15T04:07:07;7.57;;;1.80;;
49890;SDS011;35780;55.568;37.492;2023-02-15T04:09:33;5.78;;;2.30;;
49890;SDS011;35780;55.568;37.492;2023-02-15T04:12:17;7.38;;;2.45;;
49890;SDS011;35780;55.568;37.492;2023-02-15T04:14:43;7.00;;;1.77;;
49890;SDS011;35780;55.568;37.492;2023-02-15T04:17:30;6.85;;;2.03;;
49890;SDS011;35780;55.568;37.492;2023-02-15T04:19:55;12.38;;;2.78;;
49890;SDS011;35780;55.568;37.492;2023-02-15T04:22:39;7.25;;;2.13;;
49890;SDS011;35780;55.568;37.492;2023-02-15T04:25:24;7.57;;;2.13;;
49890;SDS011;35780;55.568;37.492;2023-02-15T04:27:50;5.55;;;2.22;;
49890;SDS011;35780;55.568;37.492;2023-02-15T04:30:18;5.90;;;2.10;;
49890;SDS011;35780;55.568;37.492;2023-02-15T04:32:45;8.52;;;2.30;;
49890;SDS011;35780;55.568;37.492;2023-02-15T04:35:10;8.70;;;1.70;;
49890;SDS011;35780;55.568;37.492;2023-02-15T04:37:36;10.73;;;2.17;;
49890;SDS011;35780;55.568;37.492;2023-02-15T04:40:03;9.57;;;1.95;;
49890;SDS011;35780;55.568;37.492;2023-02-15T04:42:30;8.43;;;2.00;;
49890;SDS011;35780;55.568;37.492;2023-02-15T04:44:55;5.70;;;2.03;;
49890;SDS011;35780;55.568;37.492;2023-02-15T04:47:21;5.05;;;1.83;;
49890;SDS011;35780;55.568;37.492;2023-02-15T04:49:47;8.73;;;2.28;;
49890;SDS011;35780;55.568;37.492;2023-02-15T04:52:12;4.15;;;1.60;;
49890;SDS011;35780;55.568;37.492;2023-02-15T04:54:38;8.02;;;2.00;;
49890;SDS011;35780;55.568;37.492;2023-02-15T04:57:04;4.82;;;1.73;;
49890;SDS011;35780;55.568;37.492;2023-02-15T04:59:30;4.45;;;1.80;;
49890;SDS011;35780;55.568;37.492;2023-02-15T05:01:56;9.90;;;2.00;;
49890;SDS011;35780;55.568;37.492;2023-02-15T05:04:24;11.02;;;2.38;;
49890;SDS011;35780;55.568;37.492;2023-02-15T05:06:50;3.95;;;1.77;;
49890;SDS011;35780;55.568;37.492;2023-02-15T05:09:15;4.47;;;2.25;;
49890;SDS011;35780;55.568;37.492;2023-02-15T05:11:42;8.40;;;2.10;;
49890;SDS011;35780;55.568;37.492;2023-02-15T05:14:08;7.53;;;2.00;;
49890;SDS011;35780;55.568;37.492;2023-02-15T05:16:34;9.88;;;2.22;;
49890;SDS011;35780;55.568;37.492;2023-02-15T05:18:59;5.95;;;1.85;;
49890;SDS011;35780;55.568;37.492;2023-02-15T05:21:25;5.93;;;1.80;;
49890;SDS011;35780;55.568;37.492;2023-02-15T05:23:51;9.93;;;2.00;;
49890;SDS011;35780;55.568;37.492;2023-02-15T05:26:18;10.07;;;2.35;;
49890;SDS011;35780;55.568;37.492;2023-02-15T05:29:04;11.23;;;1.95;;
49890;SDS011;35780;55.568;37.492;2023-02-15T05:31:30;6.10;;;1.90;;
49890;SDS011;35780;55.568;37.492;2023-02-15T05:33:56;6.53;;;2.00;;
49890;SDS011;35780;55.568;37.492;2023-02-15T05:36:21;4.00;;;1.52;;
49890;SDS011;35780;55.568;37.492;2023-02-15T05:38:46;8.02;;;1.70;;
49890;SDS011;35780;55.568;37.492;2023-02-15T05:41:12;9.07;;;2.63;;
49890;SDS011;35780;55.568;37.492;2023-02-15T05:43:38;3.97;;;1.98;;
49890;SDS011;35780;55.568;37.492;2023-02-15T05:46:03;9.75;;;2.35;;
49890;SDS011;35780;55.568;37.492;2023-02-15T05:48:29;6.90;;;2.45;;
49890;SDS011;35780;55.568;37.492;2023-02-15T05:50:59;7.05;;;2.40;;
49890;SDS011;35780;55.568;37.492;2023-02-15T05:53:26;8.02;;;2.17;;
49890;SDS011;35780;55.568;37.492;2023-02-15T05:55:53;5.75;;;1.65;;
49890;SDS011;35780;55.568;37.492;2023-02-15T05:58:23;6.93;;;2.40;;
49890;SDS011;35780;55.568;37.492;2023-02-15T06:00:53;9.57;;;2.53;;
49890;SDS011;35780;55.568;37.492;2023-02-15T06:03:19;8.45;;;2.08;;
49890;SDS011;35780;55.568;37.492;2023-02-15T06:05:44;6.35;;;2.40;;
49890;SDS011;35780;55.568;37.492;2023-02-15T06:08:10;6.85;;;2.08;;
49890;SDS011;35780;55.568;37.492;2023-02-15T06:10:36;7.97;;;2.45;;
49890;SDS011;35780;55.568;37.492;2023-02-15T06:13:01;4.60;;;2.00;;
49890;SDS011;35780;55.568;37.492;2023-02-15T06:15:27;4.57;;;2.10;;
49890;SDS011;35780;55.568;37.492;2023-02-15T06:17:52;8.93;;;2.72;;
49890;SDS011;35780;55.568;37.492;2023-02-15T06:20:18;7.88;;;2.90;;
49890;SDS011;35780;55.568;37.492;2023-02-15T06:22:43;8.27;;;3.13;;
49890;SDS011;35780;55.568;37.492;2023-02-15T06:25:09;7.97;;;2.55;;
49890;SDS011;35780;55.568;37.492;2023-02-15T06:27:38;7.88;;;2.75;;
49890;SDS011;35780;55.568;37.492;2023-02-15T06:30:06;10.15;;;3.10;;
49890;SDS011;35780;55.568;37.492;2023-02-15T06:32:33;5.50;;;2.65;;
49890;SDS011;35780;55.568;37.492;2023-02-15T06:34:58;12.77;;;3.40;;
49890;SDS011;35780;55.568;37.492;2023-02-15T06:37:24;7.40;;;3.17;;
49890;SDS011;35780;55.568;37.492;2023-02-15T06:39:49;9.10;;;3.40;;
49890;SDS011;35780;55.568;37.492;2023-02-15T06:42:15;8.63;;;3.20;;
49890;SDS011;35780;55.568;37.492;2023-02-15T06:44:43;8.85;;;3.08;;
49890;SDS011;35780;55.568;37.492;2023-02-15T06:47:08;6.47;;;3.17;;
49890;SDS011;35780;55.568;37.492;2023-02-15T06:49:34;15.20;;;3.72;;
49890;SDS011;35780;55.568;37.492;2023-02-15T06:51:59;9.00;;;3.78;;
49890;SDS011;35780;55.568;37.492;2023-02-15T06:54:25;9.70;;;3.53;;
49890;SDS011;35780;55.568;37.492;2023-02-15T06:56:50;13.50;;;3.53;;
49890;SDS011;35780;55.568;37.492;2023-02-15T06:59:16;12.55;;;3.60;;
49890;SDS011;35780;55.568;37.492;2023-02-15T07:01:41;13.88;;;3.60;;
49890;SDS011;35780;55.568;37.492;2023-02-15T07:04:07;9.07;;;3.65;;
49890;SDS011;35780;55.568;37.492;2023-02-15T07:06:32;13.65;;;4.72;;
49890;SDS011;35780;55.568;37.492;2023-02-15T07:08:58;13.50;;;3.85;;
49890;SDS011;35780;55.568;37.492;2023-02-15T07:11:24;9.75;;;3.30;;
49890;SDS011;35780;55.568;37.492;2023-02-15T07:14:09;12.10;;;3.85;;
49890;SDS011;35780;55.568;37.492;2023-02-15T07:16:34;8.73;;;3.08;;
49890;SDS011;35780;55.568;37.492;2023-02-15T07:19:00;13.18;;;4.00;;
49890;SDS011;35780;55.568;37.492;2023-02-15T07:21:25;9.27;;;3.40;;
49890;SDS011;35780;55.568;37.492;2023-02-15T07:23:51;7.40;;;2.72;;
49890;SDS011;35780;55.568;37.492;2023-02-15T07:26:16;6.93;;;2.83;;
49890;SDS011;35780;55.568;37.492;2023-02-15T07:28:42;8.00;;;3.00;;
49890;SDS011;35780;55.568;37.492;2023-02-15T07:31:07;6.28;;;3.05;;
49890;SDS011;35780;55.568;37.492;2023-02-15T07:33:33;9.60;;;3.13;;
49890;SDS011;35780;55.568;37.492;2023-02-15T07:36:00;7.40;;;2.78;;
49890;SDS011;35780;55.568;37.492;2023-02-15T07:38:29;7.30;;;2.22;;
49890;SDS011;35780;55.568;37.492;2023-02-15T07:40:57;9.10;;;3.40;;
49890;SDS011;35780;55.568;37.492;2023-02-15T07:43:24;9.30;;;3.13;;
49890;SDS011;35780;55.568;37.492;2023-02-15T07:45:50;7.47;;;3.60;;
49890;SDS011;35780;55.568;37.492;2023-02-15T07:48:15;10.40;;;4.40;;
49890;SDS011;35780;55.568;37.492;2023-02-15T07:50:41;9.40;;;3.47;;
49890;SDS011;35780;55.568;37.492;2023-02-15T07:53:06;12.93;;;3.83;;
49890;SDS011;35780;55.568;37.492;2023-02-15T07:55:32;9.93;;;4.00;;
49890;SDS011;35780;55.568;37.492;2023-02-15T07:57:57;8.63;;;3.13;;
49890;SDS011;35780;55.568;37.492;2023-02-15T08:00:23;7.88;;;3.35;;
49890;SDS011;35780;55.568;37.492;2023-02-15T08:02:54;7.15;;;3.03;;
49890;SDS011;35780;55.568;37.492;2023-02-15T08:05:41;15.65;;;3.65;;
49890;SDS011;35780;55.568;37.492;2023-02-15T08:08:08;9.60;;;2.92;;
49890;SDS011;35780;55.568;37.492;2023-02-15T08:10:56;7.35;;;3.40;;
49890;SDS011;35780;55.568;37.492;2023-02-15T08:13:42;6.72;;;3.63;;
49890;SDS011;35780;55.568;37.492;2023-02-15T08:19:10;10.00;;;3.97;;
49890;SDS011;35780;55.568;37.492;2023-02-15T08:21:38;8.65;;;3.17;;
49890;SDS011;35780;55.568;37.492;2023-02-15T08:24:06;7.95;;;3.55;;
49890;SDS011;35780;55.568;37.492;2023-02-15T08:26:33;12.23;;;4.07;;
49890;SDS011;35780;55.568;37.492;2023-02-15T08:28:59;9.20;;;3.92;;
49890;SDS011;35780;55.568;37.492;2023-02-15T08:31:25;8.50;;;3.65;;
49890;SDS011;35780;55.568;37.492;2023-02-15T08:33:52;12.05;;;3.92;;
49890;SDS011;35780;55.568;37.492;2023-02-15T08:36:20;12.30;;;3.45;;
49890;SDS011;35780;55.568;37.492;2023-02-15T08:38:47;10.05;;;3.85;;
49890;SDS011;35780;55.568;37.492;2023-02-15T08:41:20;13.40;;;3.75;;
49890;SDS011;35780;55.568;37.492;2023-02-15T08:43:48;7.03;;;3.50;;
49890;SDS011;35780;55.568;37.492;2023-02-15T08:46:22;8.00;;;3.47;;
49890;SDS011;35780;55.568;37.492;2023-02-15T08:48:48;7.50;;;3.72;;
49890;SDS011;35780;55.568;37.492;2023-02-15T08:51:16;6.97;;;3.25;;
49890;SDS011;35780;55.568;37.492;2023-02-15T08:53:45;8.82;;;3.85;;
49890;SDS011;35780;55.568;37.492;2023-02-15T08:56:16;7.53;;;3.22;;
49890;SDS011;35780;55.568;37.492;2023-02-15T08:58:52;7.60;;;2.92;;
49890;SDS011;35780;55.568;37.492;2023-02-15T09:01:19;12.98;;;3.28;;
49890;SDS011;35780;55.568;37.492;2023-02-15T09:03:47;10.77;;;3.40;;
49890;SDS011;35780;55.568;37.492;2023-02-15T09:06:14;12.65;;;3.28;;
49890;SDS011;35780;55.568;37.492;2023-02-15T09:08:41;7.97;;;3.30;;
49890;SDS011;35780;55.568;37.492;2023-02-15T09:11:08;6.07;;;2.80;;
49890;SDS011;35780;55.568;37.492;2023-02-15T09:13:36;8.48;;;2.88;;
49890;SDS011;35780;55.568;37.492;2023-02-15T09:16:02;6.57;;;3.00;;
49890;SDS011;35780;55.568;37.492;2023-02-15T09:18:34;7.15;;;2.85;;
49890;SDS011;35780;55.568;37.492;2023-02-15T09:21:06;6.35;;;2.80;;
49890;SDS011;35780;55.568;37.492;2023-02-15T09:23:35;6.30;;;2.80;;
49890;SDS011;35780;55.568;37.492;2023-02-15T09:26:02;9.27;;;2.83;;
49890;SDS011;35780;55.568;37.492;2023-02-15T09:28:29;8.50;;;2.83;;
49890;SDS011;35780;55.568;37.492;2023-02-15T09:30:54;6.28;;;2.85;;
49890;SDS011;35780;55.568;37.492;2023-02-15T09:33:20;6.88;;;2.85;;
49890;SDS011;35780;55.568;37.492;2023-02-15T09:35:47;9.05;;;2.60;;
49890;SDS011;35780;55.568;37.492;2023-02-15T09:38:12;4.40;;;2.97;;
49890;SDS011;35780;55.568;37.492;2023-02-15T09:40:41;4.88;;;2.20;;
49890;SDS011;35780;55.568;37.492;2023-02-15T09:43:17;7.22;;;2.80;;
49890;SDS011;35780;55.568;37.492;2023-02-15T09:46:20;3.60;;;1.67;;
49890;SDS011;35780;55.568;37.492;2023-02-15T09:48:55;8.38;;;2.47;;
49890;SDS011;35780;55.568;37.492;2023-02-15T09:52:03;5.93;;;2.60;;
49890;SDS011;35780;55.568;37.492;2023-02-15T09:55:13;9.48;;;3.08;;
49890;SDS011;35780;55.568;37.492;2023-02-15T10:00:16;5.30;;;2.28;;
49890;SDS011;35780;55.568;37.492;2023-02-15T10:08:14;5.00;;;2.40;;
49890;SDS011;35780;55.568;37.492;2023-02-15T10:26:40;6.38;;;2.40;;
49890;SDS011;35780;55.568;37.492;2023-02-15T10:29:05;5.32;;;1.98;;
49890;SDS011;35780;55.568;37.492;2023-02-15T10:31:38;6.25;;;2.30;;
49890;SDS011;35780;55.568;37.492;2023-02-15T10:34:28;5.22;;;2.20;;
49890;SDS011;35780;55.568;37.492;2023-02-15T10:37:10;3.95;;;1.85;;
49890;SDS011;35780;55.568;37.492;2023-02-15T10:42:39;5.53;;;2.45;;
49890;SDS011;35780;55.568;37.492;2023-02-15T10:50:57;10.45;;;2.85;;
49890;SDS011;35780;55.568;37.492;2023-02-15T11:01:40;6.47;;;2.70;;
49890;SDS011;35780;55.568;37.492;2023-02-15T11:07:02;10.98;;;2.33;;
49890;SDS011;35780;55.568;37.492;2023-02-15T11:12:08;4.97;;;2.33;;
49890;SDS011;35780;55.568;37.492;2023-02-15T11:14:49;3.58;;;2.22;;
49890;SDS011;35780;55.568;37.492;2023-02-15T11:17:24;5.97;;;2.30;;
49890;SDS011;35780;55.568;37.492;2023-02-15T11:20:04;3.72;;;1.92;;
49890;SDS011;35780;55.568;37.492;2023-02-15T11:22:40;5.38;;;2.30;;
49890;SDS011;35780;55.568;37.492;2023-02-15T11:25:14;7.50;;;1.80;;
49890;SDS011;35780;55.568;37.492;2023-02-15T11:27:42;5.65;;;1.73;;
49890;SDS011;35780;55.568;37.492;2023-02-15T11:30:19;7.35;;;1.83;;
49890;SDS011;35780;55.568;37.492;2023-02-15T11:32:50;6.45;;;1.85;;
49890;SDS011;35780;55.568;37.492;2023-02-15T11:35:24;7.35;;;1.90;;
49890;SDS011;35780;55.568;37.492;2023-02-15T11:38:01;5.28;;;1.83;;
49890;SDS011;35780;55.568;37.492;2023-02-15T11:40:32;5.88;;;2.03;;
49890;SDS011;35780;55.568;37.492;2023-02-15T11:43:06;4.30;;;1.77;;
49890;SDS011;35780;55.568;37.492;2023-02-15T11:45:49;5.00;;;2.22;;
49890;SDS011;35780;55.568;37.492;2023-02-15T11:48:14;6.65;;;2.20;;
49890;SDS011;35780;55.568;37.492;2023-02-15T11:50:41;6.07;;;3.15;;
49890;SDS011;35780;55.568;37.492;2023-02-15T12:01:07;4.45;;;2.38;;
49890;SDS011;35780;55.568;37.492;2023-02-15T12:06:25;4.38;;;2.40;;
49890;SDS011;35780;55.568;37.492;2023-02-15T12:08:59;6.65;;;2.00;;
49890;SDS011;35780;55.568;37.492;2023-02-15T12:11:41;5.50;;;1.92;;
49890;SDS011;35780;55.568;37.492;2023-02-15T12:14:10;5.63;;;2.25;;
49890;SDS011;35780;55.568;37.492;2023-02-15T12:16:41;8.57;;;2.40;;
49890;SDS011;35780;55.568;37.492;2023-02-15T12:19:13;5.00;;;1.90;;
49890;SDS011;35780;55.568;37.492;2023-02-15T12:21:54;6.20;;;2.20;;
49890;SDS011;35780;55.568;37.492;2023-02-15T12:26:56;5.80;;;1.77;;
49890;SDS011;35780;55.568;37.492;2023-02-15T12:29:43;10.25;;;2.55;;
49890;SDS011;35780;55.568;37.492;2023-02-15T12:32:36;6.30;;;1.83;;
49890;SDS011;35780;55.568;37.492;2023-02-15T12:35:32;3.95;;;2.53;;
49890;SDS011;35780;55.568;37.492;2023-02-15T12:40:56;6.97;;;2.47;;
49890;SDS011;35780;55.568;37.492;2023-02-15T12:43:27;5.57;;;2.55;;
49890;SDS011;35780;55.568;37.492;2023-02-15T12:46:19;3.10;;;1.40;;
49890;SDS011;35780;55.568;37.492;2023-02-15T12:54:56;3.13;;;1.55;;
49890;SDS011;35780;55.568;37.492;2023-02-15T12:57:14;3.88;;;1.50;;
49890;SDS011;35780;55.568;37.492;2023-02-15T13:02:24;5.25;;;1.90;;
49890;SDS011;35780;55.568;37.492;2023-02-15T13:04:51;4.60;;;1.67;;
49890;SDS011;35780;55.568;37.492;2023-02-15T13:07:18;6.80;;;1.98;;
49890;SDS011;35780;55.568;37.492;2023-02-15T13:09:44;4.28;;;1.90;;
49890;SDS011;35780;55.568;37.492;2023-02-15T13:14:55;4.32;;;1.95;;
49890;SDS011;35780;55.568;37.492;2023-02-15T13:17:26;3.78;;;1.60;;
49890;SDS011;35780;55.568;37.492;2023-02-15T13:20:16;3.47;;;1.52;;
49890;SDS011;35780;55.568;37.492;2023-02-15T13:22:44;4.57;;;1.35;;
49890;SDS011;35780;55.568;37.492;2023-02-15T13:25:34;4.32;;;1.40;;
49890;SDS011;35780;55.568;37.492;2023-02-15T13:28:11;6.93;;;1.27;;
49890;SDS011;35780;55.568;37.492;2023-02-15T13:30:42;4.38;;;1.38;;
49890;SDS011;35780;55.568;37.492;2023-02-15T13:33:24;3.00;;;1.17;;
49890;SDS011;35780;55.568;37.492;2023-02-15T13:36:04;6.15;;;1.58;;
49890;SDS011;35780;55.568;37.492;2023-02-15T13:38:41;1.85;;;1.15;;
49890;SDS011;35780;55.568;37.492;2023-02-15T13:41:33;3.78;;;1.50;;
49890;SDS011;35780;55.568;37.492;2023-02-15T13:47:31;4.53;;;1.30;;
49890;SDS011;35780;55.568;37.492;2023-02-15T13:55:43;3.22;;;1.42;;
49890;SDS011;35780;55.568;37.492;2023-02-15T14:01:24;3.70;;;1.40;;
49890;SDS011;35780;55.568;37.492;2023-02-15T14:06:33;7.40;;;1.73;;
49890;SDS011;35780;55.568;37.492;2023-02-15T14:09:10;6.57;;;2.22;;
49890;SDS011;35780;55.568;37.492;2023-02-15T14:11:44;5.20;;;2.15;;
49890;SDS011;35780;55.568;37.492;2023-02-15T14:17:22;3.45;;;1.85;;
49890;SDS011;35780;55.568;37.492;2023-02-15T14:20:02;2.78;;;1.48;;
49890;SDS011;35780;55.568;37.492;2023-02-15T14:23:36;2.80;;;1.63;;
49890;SDS011;35780;55.568;37.492;2023-02-15T14:28:43;4.40;;;1.70;;
49890;SDS011;35780;55.568;37.492;2023-02-15T14:31:13;6.20;;;1.73;;
49890;SDS011;35780;55.568;37.492;2023-02-15T14:33:40;4.88;;;1.90;;
49890;SDS011;35780;55.568;37.492;2023-02-15T14:36:12;3.45;;;1.58;;
49890;SDS011;35780;55.568;37.492;2023-02-15T14:49:25;4.70;;;2.10;;
49890;SDS011;35780;55.568;37.492;2023-02-15T14:51:59;3.03;;;1.63;;
49890;SDS011;35780;55.568;37.492;2023-02-15T14:59:25;8.15;;;2.13;;
49890;SDS011;35780;55.568;37.492;2023-02-15T15:02:15;5.68;;;1.60;;
49890;SDS011;35780;55.568;37.492;2023-02-15T15:04:44;2.03;;;1.52;;
49890;SDS011;35780;55.568;37.492;2023-02-15T15:07:23;4.20;;;2.08;;
49890;SDS011;35780;55.568;37.492;2023-02-15T15:12:52;5.30;;;1.85;;
49890;SDS011;35780;55.568;37.492;2023-02-15T15:18:09;4.00;;;1.80;;
49890;SDS011;35780;55.568;37.492;2023-02-15T15:25:45;6.18;;;2.38;;
49890;SDS011;35780;55.568;37.492;2023-02-15T15:33:42;9.02;;;1.63;;
49890;SDS011;35780;55.568;37.492;2023-02-15T15:49:45;3.63;;;1.73;;
49890;SDS011;35780;55.568;37.492;2023-02-15T15:52:14;5.70;;;1.92;;
49890;SDS011;35780;55.568;37.492;2023-02-15T15:54:42;3.45;;;2.00;;
49890;SDS011;35780;55.568;37.492;2023-02-15T15:59:54;5.85;;;2.08;;
49890;SDS011;35780;55.568;37.492;2023-02-15T16:02:19;5.97;;;2.25;;
49890;SDS011;35780;55.568;37.492;2023-02-15T16:04:45;5.55;;;2.25;;
49890;SDS011;35780;55.568;37.492;2023-02-15T16:09:41;6.35;;;2.80;;
49890;SDS011;35780;55.568;37.492;2023-02-15T16:12:18;8.68;;;2.53;;
49890;SDS011;35780;55.568;37.492;2023-02-15T16:14:45;6.35;;;2.95;;
49890;SDS011;35780;55.568;37.492;2023-02-15T16:17:34;6.88;;;2.42;;
49890;SDS011;35780;55.568;37.492;2023-02-15T16:20:06;6.75;;;2.80;;
49890;SDS011;35780;55.568;37.492;2023-02-15T16:22:38;10.13;;;3.08;;
49890;SDS011;35780;55.568;37.492;2023-02-15T16:27:45;4.38;;;2.00;;
49890;SDS011;35780;55.568;37.492;2023-02-15T16:30:26;4.00;;;2.03;;
49890;SDS011;35780;55.568;37.492;2023-02-15T16:35:30;4.47;;;1.95;;
49890;SDS011;35780;55.568;37.492;2023-02-15T16:37:56;5.85;;;2.10;;
49890;SDS011;35780;55.568;37.492;2023-02-15T16:42:51;7.88;;;1.90;;
49890;SDS011;35780;55.568;37.492;2023-02-15T16:45:22;3.85;;;2.03;;
49890;SDS011;35780;55.568;37.492;2023-02-15T16:47:50;3.65;;;1.67;;
49890;SDS011;35780;55.568;37.492;2023-02-15T16:50:19;5.75;;;1.50;;
49890;SDS011;35780;55.568;37.492;2023-02-15T16:52:47;3.55;;;1.88;;
49890;SDS011;35780;55.568;37.492;2023-02-15T16:55:47;5.25;;;1.85;;
49890;SDS011;35780;55.568;37.492;2023-02-15T16:58:07;3.35;;;1.27;;
49890;SDS011;35780;55.568;37.492;2023-02-15T17:00:39;4.20;;;1.60;;
49890;SDS011;35780;55.568;37.492;2023-02-15T17:03:18;1.45;;;1.02;;
49890;SDS011;35780;55.568;37.492;2023-02-15T17:05:50;2.35;;;1.23;;
49890;SDS011;35780;55.568;37.492;2023-02-15T17:08:44;3.42;;;1.67;;
49890;SDS011;35780;55.568;37.492;2023-02-15T17:11:15;3.60;;;1.35;;
49890;SDS011;35780;55.568;37.492;2023-02-15T17:16:42;4.47;;;2.08;;
49890;SDS011;35780;55.568;37.492;2023-02-15T17:19:28;2.28;;;1.30;;
49890;SDS011;35780;55.568;37.492;2023-02-15T17:22:03;3.67;;;1.67;;
49890;SDS011;35780;55.568;37.492;2023-02-15T17:26:57;1.73;;;1.00;;
49890;SDS011;35780;55.568;37.492;2023-02-15T17:29:43;3.72;;;1.40;;
49890;SDS011;35780;55.568;37.492;2023-02-15T17:32:16;4.20;;;1.67;;
49890;SDS011;35780;55.568;37.492;2023-02-15T17:40:09;4.30;;;1.50;;
49890;SDS011;35780;55.568;37.492;2023-02-15T17:42:45;1.67;;;1.27;;
49890;SDS011;35780;55.568;37.492;2023-02-15T17:45:11;2.67;;;1.60;;
49890;SDS011;35780;55.568;37.492;2023-02-15T17:47:37;2.50;;;1.75;;
49890;SDS011;35780;55.568;37.492;2023-02-15T17:50:03;2.33;;;1.15;;
49890;SDS011;35780;55.568;37.492;2023-02-15T17:52:30;2.53;;;1.15;;
49890;SDS011;35780;55.568;37.492;2023-02-15T17:54:56;2.83;;;1.27;;
49890;SDS011;35780;55.568;37.492;2023-02-15T17:57:40;1.52;;;0.90;;
49890;SDS011;35780;55.568;37.492;2023-02-15T18:00:06;3.10;;;1.30;;
49890;SDS011;35780;55.568;37.492;2023-02-15T18:02:51;2.95;;;1.70;;
49890;SDS011;35780;55.568;37.492;2023-02-15T18:05:35;2.70;;;1.70;;